Skip Navigation LinksHome page > Weather > Current weather Skip Navigation Links

Current Weather

Heathrow, London

For information only: do not use for flight planning or navigation.
Latest weather
Observation time Monday, May 22, 2017 4:20 PM BST
Local time Monday, May 22, 2017 4:40 PM BST
Flight conditions Visual Meteorological Conditions
Winds
Wind direction South (190°)
Wind speed 15 mph
Visibility 6.2 mi.
Sky condition
Ceiling unlimited
Temperature 75°F
Dewpoint 46°F
Altimeter 29.94 in.Hg
Derived measurements
Relative humidity 36%
Density altitude 1175 ft.
Remarks
Fully automated report.
No significant changes expected in the next two hours.
METAR EGLL 221520Z AUTO 19013KT 9999 NCD 24/08 Q1014 NOSIG

Settings

Location code

InnerDrive.Weather 4.0.6144.1 Release CLR 4.0.30319.36366
Copyright ©2015 Inner Drive Technology. All rights reserved. Portions Copyright ©1986-2015 David Braverman.

Find weather

Site navigation


Skip Navigation Links

Place info

Page info

PayPal - The safer, easier way to pay online!

Return home.

Copyright ©2017 Inner Drive Technology. Purveyors of fine, hand-crafted computer software. Page printed 2017-05-22T15:40:31 UTC.